KJYO Airport (Leesburg Executive) Information

FAA: JYO - ICAO: KJYO

KJYO Airport Location

State Virginia
County Loudoun
City Leesburg
KJYO Airport is 3 miles south of Leesburg, VA.
Latitude 39-04-40.7000N
Longitude 077-33-27.0000W
Elevation 389ft

KJYO Airport METARs

METAR KJYO 072035Z AUTO 00000KT 7SM OVC004 12/12 A3014 RMK AO2
Altimeter 30.14"
Temperature 12.0°C (53.6°F)
Wind 0° at 0KT
Clouds overcast at 400ft
Visibility 7.0mi
Time observed: 2022-12-07T20:35:00Z

KJYO Airport Details

Status Operational
Activation October 1964
Ownership Public
Usage Public
Chart WASHINGTON
ATC on-site No
Beacon schedule sunset-sunrise
Beacon color clear green

KJYO Airport Contacts

Owner TOWN OF LEESBURG
Owner address 25 WEST MARKET ST., 25 WEST MARKET ST., LEESBURG, VA 20176
Owner phone 703-777-2420
Manager SCOTT MASINCUP
Manager address 2010 HEALTH CAMPUS DRIVE, HARRISONBURG, VA 22801
Manager phone (540) 689-6599

KJYO Airport (Leesburg Executive) Radio Frequencies

KJYO (Airport) Radio Frequencies

UNICOM 122.975
Common traffic advisory frequency (CTAF) 122.975